sensor_id;sensor_type;location;lat;lon;timestamp;temperature;humidity
19359;DHT22;9815;52.334;20.890;2024-02-21T00:00:21;3.90;99.90
19359;DHT22;9815;52.334;20.890;2024-02-21T00:02:50;3.90;99.90
19359;DHT22;9815;52.334;20.890;2024-02-21T00:05:23;4.00;99.90
19359;DHT22;9815;52.334;20.890;2024-02-21T00:07:51;4.00;99.90
19359;DHT22;9815;52.334;20.890;2024-02-21T00:10:20;4.10;99.90
19359;DHT22;9815;52.334;20.890;2024-02-21T00:12:50;4.10;99.90
19359;DHT22;9815;52.334;20.890;2024-02-21T00:15:18;4.20;99.90
19359;DHT22;9815;52.334;20.890;2024-02-21T00:17:48;4.20;99.90
19359;DHT22;9815;52.334;20.890;2024-02-21T00:20:17;4.20;99.90
19359;DHT22;9815;52.334;20.890;2024-02-21T00:22:47;4.20;99.90
19359;DHT22;9815;52.334;20.890;2024-02-21T00:25:18;4.20;99.90
19359;DHT22;9815;52.334;20.890;2024-02-21T00:27:52;4.20;99.90
19359;DHT22;9815;52.334;20.890;2024-02-21T00:30:21;4.20;99.90
19359;DHT22;9815;52.334;20.890;2024-02-21T00:32:52;4.10;99.90
19359;DHT22;9815;52.334;20.890;2024-02-21T00:35:20;4.20;99.90
19359;DHT22;9815;52.334;20.890;2024-02-21T00:37:49;4.20;99.90
19359;DHT22;9815;52.334;20.890;2024-02-21T00:40:17;4.20;99.90
19359;DHT22;9815;52.334;20.890;2024-02-21T00:42:47;4.20;99.90
19359;DHT22;9815;52.334;20.890;2024-02-21T00:45:17;4.30;99.90
19359;DHT22;9815;52.334;20.890;2024-02-21T00:47:48;4.30;99.90
19359;DHT22;9815;52.334;20.890;2024-02-21T00:50:17;4.40;99.90
19359;DHT22;9815;52.334;20.890;2024-02-21T00:52:45;4.40;99.90
19359;DHT22;9815;52.334;20.890;2024-02-21T00:55:14;4.50;99.90
19359;DHT22;9815;52.334;20.890;2024-02-21T00:57:44;4.50;99.90
19359;DHT22;9815;52.334;20.890;2024-02-21T01:00:15;4.50;99.90
19359;DHT22;9815;52.334;20.890;2024-02-21T01:02:44;4.50;99.90
19359;DHT22;9815;52.334;20.890;2024-02-21T01:05:22;4.50;99.90
19359;DHT22;9815;52.334;20.890;2024-02-21T01:07:53;4.50;99.90
19359;DHT22;9815;52.334;20.890;2024-02-21T01:10:21;4.50;99.90
19359;DHT22;9815;52.334;20.890;2024-02-21T01:12:55;4.50;99.90
19359;DHT22;9815;52.334;20.890;2024-02-21T01:15:23;4.50;99.90
19359;DHT22;9815;52.334;20.890;2024-02-21T01:17:53;4.60;99.90
19359;DHT22;9815;52.334;20.890;2024-02-21T01:20:23;4.60;99.90
19359;DHT22;9815;52.334;20.890;2024-02-21T01:22:51;4.60;99.90
19359;DHT22;9815;52.334;20.890;2024-02-21T01:25:19;4.60;99.90
19359;DHT22;9815;52.334;20.890;2024-02-21T01:27:50;4.70;99.90
19359;DHT22;9815;52.334;20.890;2024-02-21T01:30:19;4.70;99.90
19359;DHT22;9815;52.334;20.890;2024-02-21T01:32:47;4.70;99.90
19359;DHT22;9815;52.334;20.890;2024-02-21T01:35:17;4.70;99.90
19359;DHT22;9815;52.334;20.890;2024-02-21T01:37:46;4.70;99.90
19359;DHT22;9815;52.334;20.890;2024-02-21T01:40:15;4.80;99.90
19359;DHT22;9815;52.334;20.890;2024-02-21T01:42:43;4.80;99.90
19359;DHT22;9815;52.334;20.890;2024-02-21T01:45:11;4.90;99.90
19359;DHT22;9815;52.334;20.890;2024-02-21T01:47:44;4.80;99.90
19359;DHT22;9815;52.334;20.890;2024-02-21T01:50:14;4.90;99.90
19359;DHT22;9815;52.334;20.890;2024-02-21T01:52:46;4.90;99.90
19359;DHT22;9815;52.334;20.890;2024-02-21T01:55:17;4.90;99.90
19359;DHT22;9815;52.334;20.890;2024-02-21T01:57:50;4.90;99.90
19359;DHT22;9815;52.334;20.890;2024-02-21T02:00:19;5.00;99.90
19359;DHT22;9815;52.334;20.890;2024-02-21T02:02:48;4.90;99.90
19359;DHT22;9815;52.334;20.890;2024-02-21T02:05:19;5.00;99.90
19359;DHT22;9815;52.334;20.890;2024-02-21T02:07:51;4.90;99.90
19359;DHT22;9815;52.334;20.890;2024-02-21T02:10:22;4.90;99.90
19359;DHT22;9815;52.334;20.890;2024-02-21T02:12:50;5.00;99.90
19359;DHT22;9815;52.334;20.890;2024-02-21T02:15:19;5.00;99.90
19359;DHT22;9815;52.334;20.890;2024-02-21T02:17:47;5.00;99.90
19359;DHT22;9815;52.334;20.890;2024-02-21T02:20:16;4.90;99.90
19359;DHT22;9815;52.334;20.890;2024-02-21T02:22:46;4.90;99.90
19359;DHT22;9815;52.334;20.890;2024-02-21T02:25:18;5.00;99.90
19359;DHT22;9815;52.334;20.890;2024-02-21T02:27:48;5.00;99.90
19359;DHT22;9815;52.334;20.890;2024-02-21T02:30:17;5.00;99.90
19359;DHT22;9815;52.334;20.890;2024-02-21T02:32:45;5.00;99.90
19359;DHT22;9815;52.334;20.890;2024-02-21T02:35:14;5.00;99.90
19359;DHT22;9815;52.334;20.890;2024-02-21T02:37:49;5.00;99.90
19359;DHT22;9815;52.334;20.890;2024-02-21T02:40:23;5.00;99.90
19359;DHT22;9815;52.334;20.890;2024-02-21T02:42:53;4.90;99.90
19359;DHT22;9815;52.334;20.890;2024-02-21T02:45:32;4.90;99.90
19359;DHT22;9815;52.334;20.890;2024-02-21T02:48:03;4.90;99.90
19359;DHT22;9815;52.334;20.890;2024-02-21T02:50:37;4.90;99.90
19359;DHT22;9815;52.334;20.890;2024-02-21T02:53:06;4.90;99.90
19359;DHT22;9815;52.334;20.890;2024-02-21T02:55:37;4.90;99.90
19359;DHT22;9815;52.334;20.890;2024-02-21T02:58:06;5.00;99.90
19359;DHT22;9815;52.334;20.890;2024-02-21T03:00:35;4.90;99.90
19359;DHT22;9815;52.334;20.890;2024-02-21T03:03:04;4.90;99.90
19359;DHT22;9815;52.334;20.890;2024-02-21T03:05:32;4.80;99.90
19359;DHT22;9815;52.334;20.890;2024-02-21T03:08:01;4.80;99.90
19359;DHT22;9815;52.334;20.890;2024-02-21T03:10:35;4.80;99.90
19359;DHT22;9815;52.334;20.890;2024-02-21T03:13:06;4.70;99.90
19359;DHT22;9815;52.334;20.890;2024-02-21T03:15:34;4.60;99.90
19359;DHT22;9815;52.334;20.890;2024-02-21T03:18:03;4.60;99.90
19359;DHT22;9815;52.334;20.890;2024-02-21T03:20:31;4.60;99.90
19359;DHT22;9815;52.334;20.890;2024-02-21T03:23:02;4.50;99.90
19359;DHT22;9815;52.334;20.890;2024-02-21T03:25:33;4.60;99.90
19359;DHT22;9815;52.334;20.890;2024-02-21T03:28:03;4.60;99.90
19359;DHT22;9815;52.334;20.890;2024-02-21T03:30:32;4.60;99.90
19359;DHT22;9815;52.334;20.890;2024-02-21T03:33:01;4.60;99.90
19359;DHT22;9815;52.334;20.890;2024-02-21T03:35:29;4.60;99.90
19359;DHT22;9815;52.334;20.890;2024-02-21T03:37:58;4.60;99.90
19359;DHT22;9815;52.334;20.890;2024-02-21T03:40:29;4.60;99.90
19359;DHT22;9815;52.334;20.890;2024-02-21T03:43:01;4.60;99.90
19359;DHT22;9815;52.334;20.890;2024-02-21T03:45:30;4.60;99.90
19359;DHT22;9815;52.334;20.890;2024-02-21T03:47:59;4.60;99.90
19359;DHT22;9815;52.334;20.890;2024-02-21T03:50:27;4.70;99.90
19359;DHT22;9815;52.334;20.890;2024-02-21T03:52:59;4.70;99.90
19359;DHT22;9815;52.334;20.890;2024-02-21T03:55:30;4.70;99.90
19359;DHT22;9815;52.334;20.890;2024-02-21T03:58:04;4.70;99.90
19359;DHT22;9815;52.334;20.890;2024-02-21T04:00:34;4.70;99.90
19359;DHT22;9815;52.334;20.890;2024-02-21T04:03:03;4.70;99.90
19359;DHT22;9815;52.334;20.890;2024-02-21T04:05:31;4.70;99.90
19359;DHT22;9815;52.334;20.890;2024-02-21T04:08:04;4.70;99.90
19359;DHT22;9815;52.334;20.890;2024-02-21T04:10:34;4.80;99.90
19359;DHT22;9815;52.334;20.890;2024-02-21T04:13:03;4.80;99.90
19359;DHT22;9815;52.334;20.890;2024-02-21T04:15:33;4.80;99.90
19359;DHT22;9815;52.334;20.890;2024-02-21T04:18:02;4.80;99.90
19359;DHT22;9815;52.334;20.890;2024-02-21T04:20:31;4.80;99.90
19359;DHT22;9815;52.334;20.890;2024-02-21T04:22:59;4.80;99.90
19359;DHT22;9815;52.334;20.890;2024-02-21T04:25:28;4.80;99.90
19359;DHT22;9815;52.334;20.890;2024-02-21T04:27:56;4.80;99.90
19359;DHT22;9815;52.334;20.890;2024-02-21T04:30:26;4.80;99.90
19359;DHT22;9815;52.334;20.890;2024-02-21T04:32:56;4.80;99.90
19359;DHT22;9815;52.334;20.890;2024-02-21T04:35:27;4.90;99.90
19359;DHT22;9815;52.334;20.890;2024-02-21T04:37:55;4.90;99.90
19359;DHT22;9815;52.334;20.890;2024-02-21T04:40:27;4.90;99.90
19359;DHT22;9815;52.334;20.890;2024-02-21T04:42:59;4.90;99.90
19359;DHT22;9815;52.334;20.890;2024-02-21T04:45:27;4.90;99.90
19359;DHT22;9815;52.334;20.890;2024-02-21T04:48:06;4.90;99.90
19359;DHT22;9815;52.334;20.890;2024-02-21T04:50:35;4.90;99.90
19359;DHT22;9815;52.334;20.890;2024-02-21T04:53:06;5.00;99.90
19359;DHT22;9815;52.334;20.890;2024-02-21T04:55:34;5.00;99.90
19359;DHT22;9815;52.334;20.890;2024-02-21T04:58:03;5.00;99.90
19359;DHT22;9815;52.334;20.890;2024-02-21T05:00:31;5.00;99.90
19359;DHT22;9815;52.334;20.890;2024-02-21T05:03:03;5.00;99.90
19359;DHT22;9815;52.334;20.890;2024-02-21T05:05:35;4.90;99.90
19359;DHT22;9815;52.334;20.890;2024-02-21T05:08:09;5.00;99.90
19359;DHT22;9815;52.334;20.890;2024-02-21T05:10:40;5.00;99.90
19359;DHT22;9815;52.334;20.890;2024-02-21T05:13:09;4.90;99.90
19359;DHT22;9815;52.334;20.890;2024-02-21T05:15:37;4.90;99.90
19359;DHT22;9815;52.334;20.890;2024-02-21T05:18:06;4.90;99.90
19359;DHT22;9815;52.334;20.890;2024-02-21T05:20:37;4.90;99.90
19359;DHT22;9815;52.334;20.890;2024-02-21T05:23:07;4.90;99.90
19359;DHT22;9815;52.334;20.890;2024-02-21T05:25:36;5.00;99.90
19359;DHT22;9815;52.334;20.890;2024-02-21T05:28:04;5.00;99.90
19359;DHT22;9815;52.334;20.890;2024-02-21T05:30:39;5.00;99.90
19359;DHT22;9815;52.334;20.890;2024-02-21T05:33:11;5.10;99.90
19359;DHT22;9815;52.334;20.890;2024-02-21T05:35:41;5.00;99.90
19359;DHT22;9815;52.334;20.890;2024-02-21T05:38:10;5.00;99.90
19359;DHT22;9815;52.334;20.890;2024-02-21T05:40:42;5.10;99.90
19359;DHT22;9815;52.334;20.890;2024-02-21T05:43:13;5.10;99.90
19359;DHT22;9815;52.334;20.890;2024-02-21T05:45:42;5.10;99.90
19359;DHT22;9815;52.334;20.890;2024-02-21T05:48:10;5.10;99.90
19359;DHT22;9815;52.334;20.890;2024-02-21T05:50:40;5.10;99.90
19359;DHT22;9815;52.334;20.890;2024-02-21T05:53:09;5.10;99.90
19359;DHT22;9815;52.334;20.890;2024-02-21T05:55:39;5.10;99.90
19359;DHT22;9815;52.334;20.890;2024-02-21T05:58:09;5.20;99.90
19359;DHT22;9815;52.334;20.890;2024-02-21T06:00:40;5.20;99.90
19359;DHT22;9815;52.334;20.890;2024-02-21T06:03:09;5.30;99.90
19359;DHT22;9815;52.334;20.890;2024-02-21T06:05:37;5.30;99.90
19359;DHT22;9815;52.334;20.890;2024-02-21T06:08:10;5.30;99.90
19359;DHT22;9815;52.334;20.890;2024-02-21T06:10:39;5.30;99.90
19359;DHT22;9815;52.334;20.890;2024-02-21T06:13:07;5.40;99.90
19359;DHT22;9815;52.334;20.890;2024-02-21T06:15:38;5.40;99.90
19359;DHT22;9815;52.334;20.890;2024-02-21T06:18:06;5.40;99.90
19359;DHT22;9815;52.334;20.890;2024-02-21T06:20:37;5.50;99.90
19359;DHT22;9815;52.334;20.890;2024-02-21T06:23:07;5.50;99.90
19359;DHT22;9815;52.334;20.890;2024-02-21T06:25:37;5.60;99.90
19359;DHT22;9815;52.334;20.890;2024-02-21T06:28:09;5.60;99.90
19359;DHT22;9815;52.334;20.890;2024-02-21T06:30:40;5.60;99.90
19359;DHT22;9815;52.334;20.890;2024-02-21T06:33:12;5.70;99.90
19359;DHT22;9815;52.334;20.890;2024-02-21T06:35:40;5.70;99.90
19359;DHT22;9815;52.334;20.890;2024-02-21T06:38:09;5.70;99.90
19359;DHT22;9815;52.334;20.890;2024-02-21T06:40:40;5.70;99.90
19359;DHT22;9815;52.334;20.890;2024-02-21T06:43:08;5.70;99.90
19359;DHT22;9815;52.334;20.890;2024-02-21T06:45:36;5.70;99.90
19359;DHT22;9815;52.334;20.890;2024-02-21T06:48:05;5.70;99.90
19359;DHT22;9815;52.334;20.890;2024-02-21T06:50:34;5.80;99.90
19359;DHT22;9815;52.334;20.890;2024-02-21T06:53:05;5.70;99.90
19359;DHT22;9815;52.334;20.890;2024-02-21T06:55:34;5.80;99.90
19359;DHT22;9815;52.334;20.890;2024-02-21T06:58:16;5.80;99.90
19359;DHT22;9815;52.334;20.890;2024-02-21T07:00:47;5.80;99.90
19359;DHT22;9815;52.334;20.890;2024-02-21T07:03:18;5.90;99.90
19359;DHT22;9815;52.334;20.890;2024-02-21T07:05:48;5.90;99.90
19359;DHT22;9815;52.334;20.890;2024-02-21T07:08:17;5.90;99.90
19359;DHT22;9815;52.334;20.890;2024-02-21T07:10:48;6.00;99.90
19359;DHT22;9815;52.334;20.890;2024-02-21T07:13:18;5.90;99.90
19359;DHT22;9815;52.334;20.890;2024-02-21T07:15:50;5.90;99.90
19359;DHT22;9815;52.334;20.890;2024-02-21T07:18:20;6.00;99.90
19359;DHT22;9815;52.334;20.890;2024-02-21T07:20:48;6.00;99.90
19359;DHT22;9815;52.334;20.890;2024-02-21T07:23:19;6.00;99.90
19359;DHT22;9815;52.334;20.890;2024-02-21T07:25:48;6.00;99.90
19359;DHT22;9815;52.334;20.890;2024-02-21T07:28:18;6.00;99.90
19359;DHT22;9815;52.334;20.890;2024-02-21T07:30:45;6.10;99.90
19359;DHT22;9815;52.334;20.890;2024-02-21T07:33:14;6.10;99.90
19359;DHT22;9815;52.334;20.890;2024-02-21T07:35:46;6.10;99.90
19359;DHT22;9815;52.334;20.890;2024-02-21T07:38:14;6.10;99.90
19359;DHT22;9815;52.334;20.890;2024-02-21T07:40:45;6.20;99.90
19359;DHT22;9815;52.334;20.890;2024-02-21T07:43:18;6.30;99.90
19359;DHT22;9815;52.334;20.890;2024-02-21T07:45:49;6.30;99.90
19359;DHT22;9815;52.334;20.890;2024-02-21T07:48:17;6.40;99.90
19359;DHT22;9815;52.334;20.890;2024-02-21T07:50:50;6.40;99.90
19359;DHT22;9815;52.334;20.890;2024-02-21T07:53:23;6.50;99.90
19359;DHT22;9815;52.334;20.890;2024-02-21T07:55:51;6.60;99.90
19359;DHT22;9815;52.334;20.890;2024-02-21T07:58:21;6.70;99.90
19359;DHT22;9815;52.334;20.890;2024-02-21T08:00:57;6.70;99.90
19359;DHT22;9815;52.334;20.890;2024-02-21T08:03:36;6.80;99.90
19359;DHT22;9815;52.334;20.890;2024-02-21T08:06:13;6.90;99.90
19359;DHT22;9815;52.334;20.890;2024-02-21T08:08:44;7.00;99.90
19359;DHT22;9815;52.334;20.890;2024-02-21T08:11:12;7.00;99.90
19359;DHT22;9815;52.334;20.890;2024-02-21T08:13:42;7.10;99.90
19359;DHT22;9815;52.334;20.890;2024-02-21T08:16:11;7.10;99.90
19359;DHT22;9815;52.334;20.890;2024-02-21T08:18:40;7.00;99.90
19359;DHT22;9815;52.334;20.890;2024-02-21T08:21:11;7.00;99.90
19359;DHT22;9815;52.334;20.890;2024-02-21T08:23:42;7.00;99.90
19359;DHT22;9815;52.334;20.890;2024-02-21T08:26:12;7.10;99.90
19359;DHT22;9815;52.334;20.890;2024-02-21T08:28:42;7.00;99.90
19359;DHT22;9815;52.334;20.890;2024-02-21T08:31:11;7.00;99.90
19359;DHT22;9815;52.334;20.890;2024-02-21T08:33:42;7.00;99.90
19359;DHT22;9815;52.334;20.890;2024-02-21T08:36:17;7.00;99.90
19359;DHT22;9815;52.334;20.890;2024-02-21T08:38:46;7.10;99.90
19359;DHT22;9815;52.334;20.890;2024-02-21T08:41:15;7.10;99.90
19359;DHT22;9815;52.334;20.890;2024-02-21T08:43:46;7.10;99.90
19359;DHT22;9815;52.334;20.890;2024-02-21T08:46:15;7.20;99.90
19359;DHT22;9815;52.334;20.890;2024-02-21T08:48:44;7.40;99.90
19359;DHT22;9815;52.334;20.890;2024-02-21T08:51:14;7.40;99.90
19359;DHT22;9815;52.334;20.890;2024-02-21T08:53:47;7.40;99.90
19359;DHT22;9815;52.334;20.890;2024-02-21T08:56:16;7.40;99.90
19359;DHT22;9815;52.334;20.890;2024-02-21T08:58:46;7.50;99.90
19359;DHT22;9815;52.334;20.890;2024-02-21T09:01:15;7.60;99.90
19359;DHT22;9815;52.334;20.890;2024-02-21T09:03:43;7.70;99.90
19359;DHT22;9815;52.334;20.890;2024-02-21T09:06:13;7.90;99.90
19359;DHT22;9815;52.334;20.890;2024-02-21T09:08:42;8.10;99.90
19359;DHT22;9815;52.334;20.890;2024-02-21T09:11:10;8.10;99.90
19359;DHT22;9815;52.334;20.890;2024-02-21T09:13:39;8.20;99.90
19359;DHT22;9815;52.334;20.890;2024-02-21T09:16:09;8.20;99.90
19359;DHT22;9815;52.334;20.890;2024-02-21T09:18:37;8.10;99.90
19359;DHT22;9815;52.334;20.890;2024-02-21T09:21:07;8.00;99.90
19359;DHT22;9815;52.334;20.890;2024-02-21T09:23:40;8.00;99.90
19359;DHT22;9815;52.334;20.890;2024-02-21T09:26:08;7.90;99.90
19359;DHT22;9815;52.334;20.890;2024-02-21T09:28:41;7.90;99.90
19359;DHT22;9815;52.334;20.890;2024-02-21T09:31:11;7.90;99.90
19359;DHT22;9815;52.334;20.890;2024-02-21T09:33:40;7.90;99.90
19359;DHT22;9815;52.334;20.890;2024-02-21T09:36:09;7.90;99.90
19359;DHT22;9815;52.334;20.890;2024-02-21T09:38:39;7.90;99.90
19359;DHT22;9815;52.334;20.890;2024-02-21T09:41:18;8.00;99.90
19359;DHT22;9815;52.334;20.890;2024-02-21T09:43:52;8.00;99.90
19359;DHT22;9815;52.334;20.890;2024-02-21T09:46:36;8.00;99.90
19359;DHT22;9815;52.334;20.890;2024-02-21T09:49:17;8.00;99.90
19359;DHT22;9815;52.334;20.890;2024-02-21T09:51:50;7.90;99.90
19359;DHT22;9815;52.334;20.890;2024-02-21T09:54:19;7.80;99.90
19359;DHT22;9815;52.334;20.890;2024-02-21T09:56:54;7.80;99.90
19359;DHT22;9815;52.334;20.890;2024-02-21T09:59:28;7.70;99.90
19359;DHT22;9815;52.334;20.890;2024-02-21T10:01:58;7.70;99.90
19359;DHT22;9815;52.334;20.890;2024-02-21T10:04:35;7.70;99.90
19359;DHT22;9815;52.334;20.890;2024-02-21T10:07:05;7.70;99.90
19359;DHT22;9815;52.334;20.890;2024-02-21T10:09:34;7.70;99.90
19359;DHT22;9815;52.334;20.890;2024-02-21T10:12:10;7.70;99.90
19359;DHT22;9815;52.334;20.890;2024-02-21T10:14:40;7.80;99.90
19359;DHT22;9815;52.334;20.890;2024-02-21T10:17:16;7.80;99.90
19359;DHT22;9815;52.334;20.890;2024-02-21T10:19:46;7.80;99.90
19359;DHT22;9815;52.334;20.890;2024-02-21T10:22:17;7.70;99.90
19359;DHT22;9815;52.334;20.890;2024-02-21T10:24:48;7.80;99.90
19359;DHT22;9815;52.334;20.890;2024-02-21T10:27:16;7.80;99.90
19359;DHT22;9815;52.334;20.890;2024-02-21T10:29:49;7.90;99.90
19359;DHT22;9815;52.334;20.890;2024-02-21T10:32:20;7.90;99.90
19359;DHT22;9815;52.334;20.890;2024-02-21T10:34:50;8.00;99.90
19359;DHT22;9815;52.334;20.890;2024-02-21T10:37:21;8.00;99.90
19359;DHT22;9815;52.334;20.890;2024-02-21T10:39:49;8.00;99.90
19359;DHT22;9815;52.334;20.890;2024-02-21T10:42:21;8.10;99.90
19359;DHT22;9815;52.334;20.890;2024-02-21T10:44:51;8.10;99.90
19359;DHT22;9815;52.334;20.890;2024-02-21T10:47:23;8.10;99.90
19359;DHT22;9815;52.334;20.890;2024-02-21T10:49:59;8.10;99.90
19359;DHT22;9815;52.334;20.890;2024-02-21T10:52:41;8.20;99.90
19359;DHT22;9815;52.334;20.890;2024-02-21T10:55:19;8.10;99.90
19359;DHT22;9815;52.334;20.890;2024-02-21T10:57:52;8.00;99.90
19359;DHT22;9815;52.334;20.890;2024-02-21T11:00:24;8.00;99.90
19359;DHT22;9815;52.334;20.890;2024-02-21T11:02:59;7.90;99.90
19359;DHT22;9815;52.334;20.890;2024-02-21T11:05:29;7.90;99.90
19359;DHT22;9815;52.334;20.890;2024-02-21T11:07:58;7.90;99.90
19359;DHT22;9815;52.334;20.890;2024-02-21T11:10:30;7.90;99.90
19359;DHT22;9815;52.334;20.890;2024-02-21T11:13:10;8.00;99.90
19359;DHT22;9815;52.334;20.890;2024-02-21T11:15:44;8.00;99.90
19359;DHT22;9815;52.334;20.890;2024-02-21T11:18:24;8.00;99.90
19359;DHT22;9815;52.334;20.890;2024-02-21T11:20:53;8.00;99.90
19359;DHT22;9815;52.334;20.890;2024-02-21T11:23:27;8.10;99.90
19359;DHT22;9815;52.334;20.890;2024-02-21T11:26:04;8.20;99.90
19359;DHT22;9815;52.334;20.890;2024-02-21T11:28:33;8.20;99.90
19359;DHT22;9815;52.334;20.890;2024-02-21T11:31:08;8.30;99.90
19359;DHT22;9815;52.334;20.890;2024-02-21T11:33:39;8.30;99.90
19359;DHT22;9815;52.334;20.890;2024-02-21T11:36:08;8.20;99.90
19359;DHT22;9815;52.334;20.890;2024-02-21T11:38:38;8.20;99.90
19359;DHT22;9815;52.334;20.890;2024-02-21T11:41:11;8.20;99.90
19359;DHT22;9815;52.334;20.890;2024-02-21T11:43:42;8.10;99.90
19359;DHT22;9815;52.334;20.890;2024-02-21T11:46:11;7.90;99.90
19359;DHT22;9815;52.334;20.890;2024-02-21T11:48:43;7.90;99.90
19359;DHT22;9815;52.334;20.890;2024-02-21T11:51:22;7.90;99.90
19359;DHT22;9815;52.334;20.890;2024-02-21T11:53:59;7.90;99.90
19359;DHT22;9815;52.334;20.890;2024-02-21T11:56:30;7.80;99.90
19359;DHT22;9815;52.334;20.890;2024-02-21T11:58:59;7.80;99.90
19359;DHT22;9815;52.334;20.890;2024-02-21T12:01:29;7.80;99.90
19359;DHT22;9815;52.334;20.890;2024-02-21T12:03:59;7.80;99.90
19359;DHT22;9815;52.334;20.890;2024-02-21T12:06:28;7.70;99.90
19359;DHT22;9815;52.334;20.890;2024-02-21T12:09:03;7.70;99.90
19359;DHT22;9815;52.334;20.890;2024-02-21T12:11:31;7.70;99.90
19359;DHT22;9815;52.334;20.890;2024-02-21T12:14:03;7.60;99.90
19359;DHT22;9815;52.334;20.890;2024-02-21T12:16:32;7.70;99.90
19359;DHT22;9815;52.334;20.890;2024-02-21T12:19:03;7.70;99.90
19359;DHT22;9815;52.334;20.890;2024-02-21T12:21:35;7.70;99.90
19359;DHT22;9815;52.334;20.890;2024-02-21T12:24:12;7.70;99.90
19359;DHT22;9815;52.334;20.890;2024-02-21T12:26:41;7.70;99.90
19359;DHT22;9815;52.334;20.890;2024-02-21T12:29:09;7.70;99.90
19359;DHT22;9815;52.334;20.890;2024-02-21T12:31:43;7.70;99.90
19359;DHT22;9815;52.334;20.890;2024-02-21T12:34:15;7.70;99.90
19359;DHT22;9815;52.334;20.890;2024-02-21T12:36:58;7.70;99.90
19359;DHT22;9815;52.334;20.890;2024-02-21T12:39:28;7.60;99.90
19359;DHT22;9815;52.334;20.890;2024-02-21T12:41:59;7.60;99.90
19359;DHT22;9815;52.334;20.890;2024-02-21T12:44:34;7.60;99.90
19359;DHT22;9815;52.334;20.890;2024-02-21T12:47:04;7.60;99.90
19359;DHT22;9815;52.334;20.890;2024-02-21T12:49:36;7.60;99.90
19359;DHT22;9815;52.334;20.890;2024-02-21T12:52:11;7.60;99.90
19359;DHT22;9815;52.334;20.890;2024-02-21T12:54:40;7.60;99.90
19359;DHT22;9815;52.334;20.890;2024-02-21T12:57:10;7.60;99.90
19359;DHT22;9815;52.334;20.890;2024-02-21T12:59:42;7.60;99.90
19359;DHT22;9815;52.334;20.890;2024-02-21T13:02:10;7.60;99.90
19359;DHT22;9815;52.334;20.890;2024-02-21T13:04:40;7.60;99.90
19359;DHT22;9815;52.334;20.890;2024-02-21T13:07:09;7.60;99.90
19359;DHT22;9815;52.334;20.890;2024-02-21T13:09:37;7.50;99.90
19359;DHT22;9815;52.334;20.890;2024-02-21T13:12:06;7.60;99.90
19359;DHT22;9815;52.334;20.890;2024-02-21T13:14:35;7.60;99.90
19359;DHT22;9815;52.334;20.890;2024-02-21T13:17:06;7.60;99.90
19359;DHT22;9815;52.334;20.890;2024-02-21T13:19:34;7.60;99.90
19359;DHT22;9815;52.334;20.890;2024-02-21T13:22:07;7.60;99.90
19359;DHT22;9815;52.334;20.890;2024-02-21T13:24:36;7.60;99.90
19359;DHT22;9815;52.334;20.890;2024-02-21T13:27:04;7.60;99.90
19359;DHT22;9815;52.334;20.890;2024-02-21T13:29:32;7.50;99.90
19359;DHT22;9815;52.334;20.890;2024-02-21T13:32:04;7.50;99.90
19359;DHT22;9815;52.334;20.890;2024-02-21T13:34:33;7.50;99.90
19359;DHT22;9815;52.334;20.890;2024-02-21T13:37:02;7.50;99.90
19359;DHT22;9815;52.334;20.890;2024-02-21T13:39:35;7.50;99.90
19359;DHT22;9815;52.334;20.890;2024-02-21T13:42:06;7.50;99.90
19359;DHT22;9815;52.334;20.890;2024-02-21T13:44:34;7.50;99.90
19359;DHT22;9815;52.334;20.890;2024-02-21T13:47:03;7.50;99.90
19359;DHT22;9815;52.334;20.890;2024-02-21T13:49:36;7.40;99.90
19359;DHT22;9815;52.334;20.890;2024-02-21T13:52:04;7.40;99.90
19359;DHT22;9815;52.334;20.890;2024-02-21T13:54:35;7.50;99.90
19359;DHT22;9815;52.334;20.890;2024-02-21T13:57:05;7.50;99.90
19359;DHT22;9815;52.334;20.890;2024-02-21T13:59:38;7.50;99.90
19359;DHT22;9815;52.334;20.890;2024-02-21T14:02:16;7.50;99.90
19359;DHT22;9815;52.334;20.890;2024-02-21T14:04:54;7.50;99.90
19359;DHT22;9815;52.334;20.890;2024-02-21T14:07:25;7.50;99.90
19359;DHT22;9815;52.334;20.890;2024-02-21T14:09:55;7.50;99.90
19359;DHT22;9815;52.334;20.890;2024-02-21T14:12:25;7.50;99.90
19359;DHT22;9815;52.334;20.890;2024-02-21T14:14:56;7.40;99.90
19359;DHT22;9815;52.334;20.890;2024-02-21T14:17:28;7.40;99.90
19359;DHT22;9815;52.334;20.890;2024-02-21T14:20:01;7.50;99.90
19359;DHT22;9815;52.334;20.890;2024-02-21T14:22:32;7.50;99.90
19359;DHT22;9815;52.334;20.890;2024-02-21T14:25:06;7.50;99.90
19359;DHT22;9815;52.334;20.890;2024-02-21T14:27:35;7.50;99.90
19359;DHT22;9815;52.334;20.890;2024-02-21T14:30:05;7.50;99.90
19359;DHT22;9815;52.334;20.890;2024-02-21T14:32:35;7.50;99.90
19359;DHT22;9815;52.334;20.890;2024-02-21T14:35:06;7.50;99.90
19359;DHT22;9815;52.334;20.890;2024-02-21T14:37:35;7.50;99.90
19359;DHT22;9815;52.334;20.890;2024-02-21T14:40:06;7.40;99.90
19359;DHT22;9815;52.334;20.890;2024-02-21T14:42:37;7.40;99.90
19359;DHT22;9815;52.334;20.890;2024-02-21T14:45:06;7.40;99.90
19359;DHT22;9815;52.334;20.890;2024-02-21T14:47:36;7.40;99.90
19359;DHT22;9815;52.334;20.890;2024-02-21T14:50:05;7.40;99.90
19359;DHT22;9815;52.334;20.890;2024-02-21T14:52:40;7.30;99.90
19359;DHT22;9815;52.334;20.890;2024-02-21T14:55:14;7.30;99.90
19359;DHT22;9815;52.334;20.890;2024-02-21T14:57:46;7.30;99.90
19359;DHT22;9815;52.334;20.890;2024-02-21T15:00:18;7.30;99.90
19359;DHT22;9815;52.334;20.890;2024-02-21T15:02:50;7.30;99.90
19359;DHT22;9815;52.334;20.890;2024-02-21T15:05:19;7.30;99.90
19359;DHT22;9815;52.334;20.890;2024-02-21T15:07:50;7.20;99.90
19359;DHT22;9815;52.334;20.890;2024-02-21T15:10:24;7.30;99.90
19359;DHT22;9815;52.334;20.890;2024-02-21T15:12:55;7.30;99.90
19359;DHT22;9815;52.334;20.890;2024-02-21T15:15:27;7.30;99.90
19359;DHT22;9815;52.334;20.890;2024-02-21T15:17:56;7.30;99.90
19359;DHT22;9815;52.334;20.890;2024-02-21T15:20:31;7.30;99.90
19359;DHT22;9815;52.334;20.890;2024-02-21T15:23:01;7.30;99.90
19359;DHT22;9815;52.334;20.890;2024-02-21T15:25:35;7.30;99.90
19359;DHT22;9815;52.334;20.890;2024-02-21T15:28:04;7.30;99.90
19359;DHT22;9815;52.334;20.890;2024-02-21T15:30:33;7.20;99.90
19359;DHT22;9815;52.334;20.890;2024-02-21T15:33:01;7.20;99.90
19359;DHT22;9815;52.334;20.890;2024-02-21T15:35:30;7.20;99.90
19359;DHT22;9815;52.334;20.890;2024-02-21T15:37:58;7.20;99.90
19359;DHT22;9815;52.334;20.890;2024-02-21T15:40:39;7.20;99.90
19359;DHT22;9815;52.334;20.890;2024-02-21T15:43:09;7.20;99.90
19359;DHT22;9815;52.334;20.890;2024-02-21T15:45:38;7.20;99.90
19359;DHT22;9815;52.334;20.890;2024-02-21T15:48:15;7.20;99.90
19359;DHT22;9815;52.334;20.890;2024-02-21T15:50:44;7.20;99.90
19359;DHT22;9815;52.334;20.890;2024-02-21T15:53:20;7.20;99.90
19359;DHT22;9815;52.334;20.890;2024-02-21T15:56:01;7.20;99.90
19359;DHT22;9815;52.334;20.890;2024-02-21T15:58:31;7.20;99.90
19359;DHT22;9815;52.334;20.890;2024-02-21T16:01:02;7.20;99.90
19359;DHT22;9815;52.334;20.890;2024-02-21T16:03:30;7.20;99.90
19359;DHT22;9815;52.334;20.890;2024-02-21T16:06:06;7.20;99.90